Time;durP1;ratioP1;P1;durP2;ratioP2;P2;SDS_P1;SDS_P2;PMS_P1;PMS_P2;Temp;Humidity;BMP_temperature;BMP_pressure;BME280_temperature;BME280_humidity;BME280_pressure;Samples;Min_cycle;Max_cycle;Signal;HPM_P1;HPM_P2
2024/03/28 00:01:31;;;;;;;3.72;2.47;;;10.40;99.90;;;;;;5031575;28;20552;-74
2024/03/28 00:03:56;;;;;;;5.43;2.90;;;10.40;99.90;;;;;;5031251;28;20029;-75
2024/03/28 00:06:22;;;;;;;7.00;2.60;;;10.30;99.90;;;;;;5030605;28;20033;-75
2024/03/28 00:08:48;;;;;;;5.15;2.80;;;10.40;99.90;;;;;;5031063;28;20382;-74
2024/03/28 00:11:13;;;;;;;2.95;2.70;;;10.30;99.90;;;;;;5030113;28;20462;-74
2024/03/28 00:13:39;;;;;;;3.83;3.17;;;10.30;99.90;;;;;;5031331;28;20414;-75
2024/03/28 00:16:05;;;;;;;2.80;2.45;;;10.30;99.90;;;;;;5028976;28;20436;-75
2024/03/28 00:18:31;;;;;;;2.92;2.60;;;10.40;99.90;;;;;;5030530;28;20163;-75
2024/03/28 00:21:01;;;;;;;3.42;2.45;;;10.40;99.90;;;;;;5030708;28;20044;-75
2024/03/28 00:23:27;;;;;;;2.63;2.42;;;10.40;99.90;;;;;;5029104;28;20470;-74
2024/03/28 00:25:57;;;;;;;2.85;2.55;;;10.30;99.90;;;;;;5030211;28;20032;-74
2024/03/28 00:28:23;;;;;;;3.10;2.80;;;10.30;99.90;;;;;;5030708;28;20036;-75
2024/03/28 00:30:54;;;;;;;3.58;2.70;;;10.20;99.90;;;;;;5030622;28;20178;-74
2024/03/28 00:33:20;;;;;;;4.05;2.20;;;10.20;99.90;;;;;;5030557;28;20032;-73
2024/03/28 00:35:48;;;;;;;5.80;2.72;;;10.30;99.90;;;;;;5030578;28;20108;-74
2024/03/28 00:38:15;;;;;;;4.00;2.38;;;10.30;99.90;;;;;;5030591;28;20087;-75
2024/03/28 00:40:52;;;;;;;4.07;2.47;;;10.30;99.90;;;;;;5030412;28;20033;-74
2024/03/28 00:43:18;;;;;;;7.15;2.35;;;10.30;99.90;;;;;;5030229;28;20382;-74
2024/03/28 00:45:44;;;;;;;6.88;2.50;;;10.30;99.90;;;;;;5029758;28;20052;-75
2024/03/28 00:48:10;;;;;;;4.38;2.78;;;10.30;99.90;;;;;;5030130;28;20037;-74
2024/03/28 00:50:37;;;;;;;2.85;2.13;;;10.40;99.90;;;;;;5031340;28;20052;-74
2024/03/28 00:53:03;;;;;;;3.97;2.42;;;10.30;99.90;;;;;;5030580;28;20474;-75
2024/03/28 00:55:29;;;;;;;4.80;2.30;;;10.30;99.90;;;;;;5030289;28;20112;-74
2024/03/28 00:57:55;;;;;;;3.05;2.17;;;10.20;99.90;;;;;;5029120;28;20033;-74
2024/03/28 01:00:21;;;;;;;3.00;2.20;;;10.10;99.90;;;;;;5030544;28;20033;-73
2024/03/28 01:02:47;;;;;;;3.17;2.60;;;10.10;99.90;;;;;;5028199;28;20159;-75
2024/03/28 01:05:14;;;;;;;3.97;2.38;;;10.10;99.90;;;;;;5025665;28;20140;-74
2024/03/28 01:07:40;;;;;;;2.58;2.38;;;10.00;99.90;;;;;;5026479;28;20037;-74
2024/03/28 01:10:06;;;;;;;2.72;2.53;;;10.00;99.90;;;;;;5027662;28;20021;-74
2024/03/28 01:12:32;;;;;;;2.65;2.30;;;10.00;99.90;;;;;;5027393;28;20026;-74
2024/03/28 01:14:57;;;;;;;2.63;2.13;;;10.00;99.90;;;;;;5027808;28;20135;-73
2024/03/28 01:17:23;;;;;;;4.53;2.70;;;9.90;99.90;;;;;;5026105;28;20026;-75
2024/03/28 01:19:50;;;;;;;4.57;2.55;;;10.00;99.90;;;;;;5027511;28;20448;-74
2024/03/28 01:22:16;;;;;;;4.18;2.40;;;9.90;99.90;;;;;;5026654;28;20029;-74
2024/03/28 01:24:42;;;;;;;3.40;2.55;;;9.90;99.90;;;;;;5027406;28;20104;-74
2024/03/28 01:27:08;;;;;;;2.20;2.00;;;9.90;99.90;;;;;;5026637;28;20163;-74
2024/03/28 01:29:34;;;;;;;4.50;2.42;;;9.80;99.90;;;;;;5027323;28;20489;-74
2024/03/28 01:32:01;;;;;;;2.55;2.35;;;9.80;99.90;;;;;;5026392;28;20547;-75
2024/03/28 01:34:26;;;;;;;2.50;2.30;;;9.70;99.90;;;;;;5027107;28;20060;-74
2024/03/28 01:36:53;;;;;;;3.53;2.50;;;9.70;99.90;;;;;;5026217;28;20056;-74
2024/03/28 01:39:19;;;;;;;3.22;2.60;;;9.60;99.90;;;;;;5026824;28;20041;-75
2024/03/28 01:41:52;;;;;;;3.33;2.45;;;9.60;99.90;;;;;;5026860;28;20033;-74
2024/03/28 01:44:20;;;;;;;4.53;2.50;;;9.50;99.90;;;;;;5026677;28;20033;-74
2024/03/28 01:46:48;;;;;;;3.13;2.83;;;9.50;99.90;;;;;;5026569;28;20061;-74
2024/03/28 01:49:14;;;;;;;4.75;3.55;;;9.50;99.90;;;;;;5025666;28;20037;-74
2024/03/28 01:51:41;;;;;;;4.75;3.10;;;9.40;99.90;;;;;;5025998;28;20018;-74
2024/03/28 01:54:11;;;;;;;3.28;2.60;;;9.40;99.90;;;;;;5024823;28;20033;-74
2024/03/28 01:56:38;;;;;;;3.15;2.83;;;9.40;99.90;;;;;;5026155;28;20018;-74
2024/03/28 01:59:05;;;;;;;3.63;2.85;;;9.30;99.90;;;;;;5026045;28;20026;-74
2024/03/28 02:01:31;;;;;;;4.25;2.72;;;9.10;99.90;;;;;;5026622;28;20410;-74
2024/03/28 02:03:56;;;;;;;4.80;3.08;;;9.20;99.90;;;;;;5024820;28;20025;-74
2024/03/28 02:06:23;;;;;;;2.85;2.65;;;9.20;99.90;;;;;;5026415;28;20032;-73
2024/03/28 02:08:50;;;;;;;4.40;2.80;;;9.20;99.90;;;;;;5026377;28;20017;-74
2024/03/28 02:11:20;;;;;;;4.95;2.63;;;9.20;99.90;;;;;;5025291;28;20552;-74
2024/03/28 02:13:46;;;;;;;3.55;2.78;;;9.00;99.90;;;;;;5024569;28;20036;-74
2024/03/28 02:16:11;;;;;;;4.88;2.65;;;9.00;99.90;;;;;;5025639;28;20026;-74
2024/03/28 02:18:37;;;;;;;2.78;2.58;;;9.10;99.90;;;;;;5025694;28;20049;-74
2024/03/28 02:21:03;;;;;;;3.08;2.67;;;9.10;99.90;;;;;;5025331;28;20552;-74
2024/03/28 02:23:29;;;;;;;2.70;2.50;;;9.00;99.90;;;;;;5026537;28;20032;-73
2024/03/28 02:25:55;;;;;;;3.25;2.92;;;9.00;99.90;;;;;;5025416;28;20022;-73
2024/03/28 02:28:21;;;;;;;3.00;2.70;;;8.90;99.90;;;;;;5025694;28;20040;-73
2024/03/28 02:30:46;;;;;;;3.00;2.78;;;8.90;99.90;;;;;;5026193;28;20076;-73
2024/03/28 02:33:12;;;;;;;3.33;3.03;;;8.90;99.90;;;;;;5025626;28;20021;-74
2024/03/28 02:35:38;;;;;;;4.40;3.30;;;8.80;99.90;;;;;;5025725;28;20382;-74
2024/03/28 02:38:04;;;;;;;2.72;2.53;;;8.70;99.90;;;;;;5025857;28;20018;-74
2024/03/28 02:40:29;;;;;;;3.67;3.38;;;8.70;99.90;;;;;;5024282;28;20864;-73
2024/03/28 02:42:55;;;;;;;3.95;3.30;;;8.80;99.90;;;;;;5025002;28;20033;-74
2024/03/28 02:45:21;;;;;;;3.13;2.92;;;8.80;99.90;;;;;;5025287;28;20048;-74
2024/03/28 02:47:46;;;;;;;3.47;3.17;;;8.90;99.90;;;;;;5022966;28;20390;-73
2024/03/28 02:50:12;;;;;;;4.30;3.05;;;9.00;99.90;;;;;;5023580;28;20418;-74
2024/03/28 02:52:39;;;;;;;4.47;2.90;;;8.90;99.90;;;;;;5025022;28;20489;-74
2024/03/28 02:55:05;;;;;;;2.78;2.53;;;9.00;99.90;;;;;;5025090;28;20044;-73
2024/03/28 02:57:31;;;;;;;3.40;3.10;;;8.90;99.90;;;;;;5024694;28;20021;-73
2024/03/28 02:59:57;;;;;;;3.20;3.00;;;8.90;99.90;;;;;;5025090;28;20045;-74
2024/03/28 03:02:23;;;;;;;3.53;2.90;;;8.90;99.90;;;;;;5025060;28;20068;-73
2024/03/28 03:04:49;;;;;;;3.30;3.00;;;8.90;99.90;;;;;;5026024;28;20112;-74
2024/03/28 03:07:14;;;;;;;3.65;2.72;;;8.90;99.90;;;;;;5024569;28;20537;-73
2024/03/28 03:09:41;;;;;;;4.80;3.22;;;8.90;99.90;;;;;;5025116;28;20025;-74
2024/03/28 03:12:07;;;;;;;5.65;2.83;;;8.80;99.90;;;;;;5025019;28;20059;-73
2024/03/28 03:14:33;;;;;;;3.72;3.42;;;8.70;99.90;;;;;;5025489;28;20056;-74
2024/03/28 03:16:59;;;;;;;3.35;3.05;;;8.80;99.90;;;;;;5024991;28;20030;-74
2024/03/28 03:19:25;;;;;;;3.80;3.45;;;8.80;99.90;;;;;;5024043;28;20030;-74
2024/03/28 03:21:52;;;;;;;5.90;3.63;;;8.80;99.90;;;;;;5025026;28;20030;-73
2024/03/28 03:24:20;;;;;;;5.80;3.63;;;8.80;99.90;;;;;;5025081;28;20021;-73
2024/03/28 03:26:49;;;;;;;6.78;3.45;;;8.70;99.90;;;;;;5023657;28;20044;-75
2024/03/28 03:34:49;;;;;;;5.10;3.63;;;8.80;99.90;;;;;;5025463;28;20079;-74
2024/03/28 03:37:24;;;;;;;4.95;3.70;;;8.90;99.90;;;;;;5024491;28;20021;-74
2024/03/28 03:39:57;;;;;;;5.53;3.67;;;8.70;99.90;;;;;;5024466;28;20048;-73
2024/03/28 03:42:23;;;;;;;4.35;3.58;;;8.80;99.90;;;;;;5024620;28;20437;-74
2024/03/28 03:44:48;;;;;;;4.45;3.50;;;8.70;99.90;;;;;;5022797;28;20013;-73
2024/03/28 03:47:14;;;;;;;4.25;3.80;;;8.80;99.90;;;;;;5024870;28;20489;-74
2024/03/28 03:49:46;;;;;;;4.55;3.63;;;8.80;99.90;;;;;;5025031;28;20029;-74
2024/03/28 03:52:14;;;;;;;3.85;3.53;;;8.70;99.90;;;;;;5026163;28;20017;-73
2024/03/28 03:54:43;;;;;;;3.58;3.28;;;8.80;99.90;;;;;;5025943;28;20022;-74
2024/03/28 03:57:09;;;;;;;4.03;3.50;;;8.80;99.90;;;;;;5025705;28;20024;-74
2024/03/28 03:59:37;;;;;;;4.55;3.72;;;8.80;99.90;;;;;;5025265;28;20127;-74
2024/03/28 04:02:03;;;;;;;3.90;3.47;;;8.80;99.90;;;;;;5025807;28;20030;-74
2024/03/28 04:04:29;;;;;;;3.50;3.20;;;8.80;99.90;;;;;;5026623;28;20021;-73
2024/03/28 04:06:56;;;;;;;3.67;3.38;;;8.80;99.90;;;;;;5026160;28;20087;-74
2024/03/28 04:09:22;;;;;;;4.07;3.55;;;8.90;99.90;;;;;;5025984;28;20036;-74
2024/03/28 04:11:50;;;;;;;5.03;4.00;;;8.80;99.90;;;;;;5024164;28;20030;-74
2024/03/28 04:14:16;;;;;;;5.50;3.42;;;8.80;99.90;;;;;;5026244;28;20024;-73
2024/03/28 04:16:42;;;;;;;3.85;3.55;;;8.80;99.90;;;;;;5025468;28;20494;-74
2024/03/28 04:19:08;;;;;;;4.93;3.53;;;8.80;99.90;;;;;;5024358;28;20482;-73
2024/03/28 04:21:34;;;;;;;3.78;3.40;;;8.80;99.90;;;;;;5026223;28;20084;-74
2024/03/28 04:24:03;;;;;;;4.65;3.63;;;8.80;99.90;;;;;;5025398;28;20755;-73
2024/03/28 04:26:30;;;;;;;4.05;3.75;;;8.90;99.90;;;;;;5025638;28;20021;-73
2024/03/28 04:28:56;;;;;;;4.97;3.08;;;8.70;99.90;;;;;;5025285;28;20041;-74
2024/03/28 04:31:22;;;;;;;5.25;3.35;;;8.70;99.90;;;;;;5023397;28;20438;-74
2024/03/28 04:33:48;;;;;;;3.72;3.42;;;8.70;99.90;;;;;;5026080;28;20560;-74
2024/03/28 04:36:15;;;;;;;4.32;3.25;;;8.70;99.90;;;;;;5024721;28;20084;-74
2024/03/28 04:38:42;;;;;;;6.50;3.30;;;8.70;99.90;;;;;;5025772;28;20045;-73
2024/03/28 04:41:09;;;;;;;3.42;3.13;;;8.60;99.90;;;;;;5029223;28;20095;-74
2024/03/28 04:43:36;;;;;;;4.22;3.20;;;8.50;99.90;;;;;;5029842;28;20021;-74
2024/03/28 04:46:02;;;;;;;5.38;3.10;;;8.60;99.90;;;;;;5028246;28;20029;-74
2024/03/28 04:48:28;;;;;;;4.65;3.10;;;8.60;99.90;;;;;;5029701;28;20030;-74
2024/03/28 04:50:53;;;;;;;4.25;3.53;;;8.60;99.90;;;;;;5029657;28;20490;-74
2024/03/28 04:53:19;;;;;;;3.53;3.22;;;8.50;99.90;;;;;;5029306;28;20092;-74
2024/03/28 04:55:45;;;;;;;4.60;3.47;;;8.50;99.90;;;;;;5029145;28;20406;-74
2024/03/28 04:58:11;;;;;;;3.95;3.17;;;8.60;99.90;;;;;;5029198;28;20450;-74
2024/03/28 05:00:37;;;;;;;3.78;3.30;;;8.60;99.90;;;;;;5029354;28;20040;-74
2024/03/28 05:03:03;;;;;;;5.65;3.47;;;8.60;99.90;;;;;;5029711;28;20028;-73
2024/03/28 05:05:29;;;;;;;5.72;3.80;;;8.60;99.90;;;;;;5023788;28;20041;-73
2024/03/28 05:07:55;;;;;;;4.90;3.05;;;8.60;99.90;;;;;;5026737;28;20118;-74
2024/03/28 05:10:21;;;;;;;4.80;3.60;;;8.40;99.90;;;;;;5029216;28;21343;-74
2024/03/28 05:12:46;;;;;;;3.88;3.17;;;8.50;99.90;;;;;;5029623;28;20022;-74
2024/03/28 05:15:12;;;;;;;5.57;3.53;;;8.50;99.90;;;;;;5027135;28;20501;-74
2024/03/28 05:17:38;;;;;;;2.70;2.50;;;8.50;99.90;;;;;;5028626;28;20108;-73
2024/03/28 05:20:06;;;;;;;4.88;3.42;;;8.40;99.90;;;;;;5029025;28;20029;-74
2024/03/28 05:22:32;;;;;;;3.78;3.42;;;8.30;99.90;;;;;;5028649;28;20113;-73
2024/03/28 05:24:58;;;;;;;6.10;3.42;;;8.20;99.90;;;;;;5025351;28;20137;-74
2024/03/28 05:27:23;;;;;;;4.38;3.67;;;8.30;99.90;;;;;;5026379;28;20049;-74
2024/03/28 05:29:49;;;;;;;4.30;3.90;;;8.20;99.90;;;;;;5027392;28;20014;-74
2024/03/28 05:32:15;;;;;;;6.35;3.90;;;8.30;99.90;;;;;;5028762;28;20025;-74
2024/03/28 05:34:42;;;;;;;5.75;3.97;;;8.30;99.90;;;;;;5028014;28;20033;-74
2024/03/28 05:37:08;;;;;;;4.63;3.80;;;8.10;99.90;;;;;;5027798;28;20019;-74
2024/03/28 05:39:34;;;;;;;3.75;3.45;;;8.20;99.90;;;;;;5028622;28;20033;-74
2024/03/28 05:41:59;;;;;;;6.53;4.53;;;8.20;99.90;;;;;;5028182;28;20025;-73
2024/03/28 05:44:25;;;;;;;4.63;4.18;;;8.30;99.90;;;;;;5029284;28;20038;-74
2024/03/28 05:46:51;;;;;;;4.50;4.10;;;8.40;99.90;;;;;;5028447;28;20486;-74
2024/03/28 05:49:18;;;;;;;5.07;3.60;;;8.50;99.90;;;;;;5025237;28;20498;-74
2024/03/28 05:51:44;;;;;;;6.13;3.80;;;8.50;99.90;;;;;;5027987;28;20029;-74
2024/03/28 05:54:09;;;;;;;6.13;3.60;;;8.60;99.90;;;;;;5027545;28;20029;-74
2024/03/28 05:56:35;;;;;;;4.68;3.30;;;8.50;99.90;;;;;;5027546;28;20030;-74
2024/03/28 05:59:01;;;;;;;5.30;3.90;;;8.60;99.90;;;;;;5028913;28;20029;-73
2024/03/28 06:01:27;;;;;;;4.72;3.90;;;8.70;99.90;;;;;;5025265;28;20036;-74
2024/03/28 06:03:52;;;;;;;8.02;3.50;;;8.60;99.90;;;;;;5025957;28;20045;-74
2024/03/28 06:06:18;;;;;;;4.07;3.30;;;8.50;99.90;;;;;;5025587;28;20110;-69
2024/03/28 06:08:44;;;;;;;7.40;3.70;;;8.50;99.90;;;;;;5026492;28;20581;-72
2024/03/28 06:11:10;;;;;;;3.88;2.97;;;8.60;99.90;;;;;;5027489;28;20033;-72
2024/03/28 06:13:36;;;;;;;5.05;3.50;;;8.70;99.90;;;;;;5028184;28;20030;-72
2024/03/28 06:16:02;;;;;;;4.50;3.75;;;8.70;99.90;;;;;;5027618;28;20048;-72
2024/03/28 06:18:30;;;;;;;4.70;3.88;;;8.80;99.90;;;;;;5025348;28;20021;-72
2024/03/28 06:21:04;;;;;;;4.18;3.75;;;8.80;99.90;;;;;;5026197;28;20475;-72
2024/03/28 06:23:31;;;;;;;4.40;3.53;;;8.80;99.90;;;;;;5026534;28;20021;-73
2024/03/28 06:26:01;;;;;;;5.13;3.53;;;8.90;99.90;;;;;;5024628;28;20037;-72
2024/03/28 06:28:27;;;;;;;4.30;3.15;;;8.90;99.90;;;;;;5024678;28;20029;-71
2024/03/28 06:30:53;;;;;;;5.75;3.40;;;8.90;99.90;;;;;;5025482;28;20022;-73
2024/03/28 06:33:23;;;;;;;5.50;3.75;;;8.90;99.90;;;;;;5026061;28;20027;-72
2024/03/28 06:35:49;;;;;;;3.78;3.40;;;9.00;99.90;;;;;;5025615;28;20112;-72
2024/03/28 06:38:15;;;;;;;4.15;3.47;;;8.90;99.90;;;;;;5026553;28;20075;-75
2024/03/28 06:40:41;;;;;;;4.95;3.33;;;9.10;99.90;;;;;;5026043;28;20045;-72
2024/03/28 06:43:07;;;;;;;3.50;3.10;;;9.10;99.90;;;;;;5023061;28;20014;-73
2024/03/28 06:45:32;;;;;;;4.03;3.17;;;9.10;99.90;;;;;;5026149;28;20029;-73
2024/03/28 06:47:58;;;;;;;2.80;2.60;;;9.10;99.90;;;;;;5024363;28;20029;-74
2024/03/28 06:50:25;;;;;;;4.15;2.83;;;9.20;99.90;;;;;;5022127;28;20037;-74
2024/03/28 06:52:53;;;;;;;3.03;2.38;;;9.30;99.90;;;;;;5024789;28;20370;-73
2024/03/28 06:55:19;;;;;;;1.77;1.67;;;9.30;99.90;;;;;;5023657;28;20033;-74
2024/03/28 06:57:46;;;;;;;1.50;1.40;;;9.30;99.90;;;;;;5024567;28;20068;-73
2024/03/28 07:00:13;;;;;;;2.70;1.50;;;9.30;99.90;;;;;;5025034;28;20441;-74
2024/03/28 07:02:38;;;;;;;1.88;1.40;;;9.30;99.90;;;;;;5025039;28;20072;-74
2024/03/28 07:05:05;;;;;;;1.63;1.35;;;9.30;99.90;;;;;;5024650;28;20026;-73
2024/03/28 07:07:30;;;;;;;1.80;1.65;;;9.30;99.90;;;;;;5025671;28;20022;-69
2024/03/28 07:09:57;;;;;;;3.00;1.67;;;9.40;99.90;;;;;;5024262;28;20018;-70
2024/03/28 07:12:23;;;;;;;5.65;1.50;;;9.40;99.90;;;;;;5025755;28;20026;-70
2024/03/28 07:14:48;;;;;;;2.10;1.55;;;9.30;99.90;;;;;;5026450;28;20120;-70
2024/03/28 07:17:15;;;;;;;1.88;1.77;;;9.30;99.90;;;;;;5023216;28;20021;-69
2024/03/28 07:19:41;;;;;;;4.53;2.20;;;9.30;99.90;;;;;;5023351;28;20103;-69
2024/03/28 07:22:08;;;;;;;2.33;1.80;;;9.30;99.90;;;;;;5025442;28;20494;-67
2024/03/28 07:24:34;;;;;;;3.80;2.10;;;9.40;99.90;;;;;;5024052;28;20092;-68
2024/03/28 07:27:01;;;;;;;3.80;2.10;;;9.30;99.90;;;;;;5022259;28;20045;-68
2024/03/28 07:29:28;;;;;;;3.45;2.17;;;9.30;99.90;;;;;;5023989;28;20052;-69
2024/03/28 07:31:54;;;;;;;2.88;2.38;;;9.40;99.90;;;;;;5022681;28;20025;-69
2024/03/28 07:34:20;;;;;;;3.92;1.80;;;9.40;99.90;;;;;;5024199;28;20522;-70
2024/03/28 07:36:46;;;;;;;2.45;1.92;;;9.30;99.90;;;;;;5024597;28;20031;-71
2024/03/28 07:39:14;;;;;;;2.20;1.92;;;9.30;99.90;;;;;;5024269;28;20037;-70
2024/03/28 07:41:42;;;;;;;3.35;2.30;;;9.30;99.90;;;;;;5023255;28;20033;-71
2024/03/28 07:44:08;;;;;;;3.30;2.40;;;9.30;99.90;;;;;;5022161;28;20076;-70
2024/03/28 07:46:34;;;;;;;4.15;2.13;;;9.30;99.90;;;;;;5024632;28;20398;-69
2024/03/28 07:49:00;;;;;;;2.85;1.85;;;9.40;99.90;;;;;;5024566;28;20021;-70
2024/03/28 07:51:26;;;;;;;4.47;2.35;;;9.30;99.90;;;;;;5023796;28;20075;-70
2024/03/28 07:53:52;;;;;;;2.50;2.05;;;9.30;99.90;;;;;;5024193;28;20041;-70
2024/03/28 07:56:21;;;;;;;3.60;1.90;;;9.40;99.90;;;;;;5022844;28;20021;-70
2024/03/28 07:58:47;;;;;;;2.08;1.92;;;9.50;99.90;;;;;;5024424;28;20033;-72
2024/03/28 08:01:13;;;;;;;2.03;1.83;;;9.40;99.90;;;;;;5024669;28;20040;-71
2024/03/28 08:03:38;;;;;;;2.97;1.70;;;9.50;99.90;;;;;;5021669;28;20100;-72
2024/03/28 08:06:05;;;;;;;3.78;1.60;;;9.50;99.90;;;;;;5020403;28;20053;-71
2024/03/28 08:08:31;;;;;;;4.18;2.50;;;9.50;99.90;;;;;;5021547;28;20017;-71
2024/03/28 08:10:58;;;;;;;2.40;1.98;;;9.50;99.90;;;;;;5021938;28;20064;-72
2024/03/28 08:13:24;;;;;;;3.15;1.90;;;9.50;99.90;;;;;;5026234;28;20014;-69
2024/03/28 08:15:50;;;;;;;2.22;1.92;;;9.50;99.90;;;;;;5028299;28;20025;-72
2024/03/28 08:18:16;;;;;;;2.30;2.00;;;9.40;99.90;;;;;;5027781;28;20028;-73
2024/03/28 08:20:43;;;;;;;2.40;2.20;;;9.40;99.90;;;;;;5028922;28;20037;-69
2024/03/28 08:23:09;;;;;;;2.47;1.92;;;9.40;99.90;;;;;;5026709;28;20109;-72
2024/03/28 08:25:35;;;;;;;2.35;2.00;;;9.50;99.90;;;;;;5027336;28;20444;-71
2024/03/28 08:28:00;;;;;;;3.08;1.95;;;9.50;99.90;;;;;;5028362;28;20446;-70
2024/03/28 08:30:26;;;;;;;1.88;1.65;;;9.50;99.90;;;;;;5027745;28;20056;-70
2024/03/28 08:32:55;;;;;;;2.05;1.60;;;9.60;99.90;;;;;;5027584;28;20108;-70
2024/03/28 08:35:21;;;;;;;2.10;1.90;;;9.60;99.90;;;;;;5025988;28;20021;-71
2024/03/28 08:37:47;;;;;;;2.63;1.50;;;9.60;99.90;;;;;;5027380;28;20029;-70
2024/03/28 08:40:13;;;;;;;2.67;2.17;;;9.60;99.90;;;;;;5027552;28;20040;-71
2024/03/28 08:42:39;;;;;;;2.58;1.50;;;9.70;99.90;;;;;;5027478;28;20034;-71
2024/03/28 08:45:08;;;;;;;1.85;1.50;;;9.60;99.90;;;;;;5026618;28;20017;-70
2024/03/28 08:47:35;;;;;;;1.67;1.35;;;9.60;99.90;;;;;;5027732;28;20029;-70
2024/03/28 08:50:04;;;;;;;2.30;1.67;;;9.60;99.90;;;;;;5026898;28;20482;-71
2024/03/28 08:52:31;;;;;;;1.98;1.77;;;9.60;99.90;;;;;;5025091;28;20064;-71
2024/03/28 08:54:57;;;;;;;4.63;1.40;;;9.60;99.90;;;;;;5027878;28;20021;-71
2024/03/28 08:57:27;;;;;;;2.42;1.70;;;9.60;99.90;;;;;;5027699;28;20083;-71
2024/03/28 08:59:54;;;;;;;2.50;1.40;;;9.60;99.90;;;;;;5027538;28;20056;-71
2024/03/28 09:02:24;;;;;;;2.03;1.27;;;9.60;99.90;;;;;;5027578;28;20025;-71
2024/03/28 09:04:51;;;;;;;1.48;1.35;;;9.70;99.90;;;;;;5027201;28;20057;-71
2024/03/28 09:07:19;;;;;;;7.95;2.00;;;9.80;99.90;;;;;;5026649;28;20029;-72
2024/03/28 09:09:45;;;;;;;2.63;1.80;;;9.90;99.90;;;;;;5026809;28;20087;-71
2024/03/28 09:12:10;;;;;;;1.77;1.20;;;9.80;99.90;;;;;;5025694;28;20029;-71
2024/03/28 09:14:38;;;;;;;1.83;1.35;;;9.80;99.90;;;;;;5028108;28;20095;-71
2024/03/28 09:17:04;;;;;;;1.63;1.52;;;9.90;99.90;;;;;;5027325;28;20030;-71
2024/03/28 09:19:31;;;;;;;1.38;1.20;;;9.90;99.90;;;;;;5027389;28;20040;-73
2024/03/28 09:21:56;;;;;;;1.85;1.40;;;9.90;99.90;;;;;;5027514;28;20033;-73
2024/03/28 09:24:22;;;;;;;1.67;1.33;;;9.90;99.90;;;;;;5024920;28;20025;-72
2024/03/28 09:26:48;;;;;;;2.08;1.75;;;10.00;99.90;;;;;;5026680;28;20037;-73
2024/03/28 09:29:19;;;;;;;2.50;1.80;;;10.10;99.90;;;;;;5026027;28;20013;-73
2024/03/28 09:31:49;;;;;;;1.88;1.50;;;10.20;99.90;;;;;;5027362;28;20017;-72
2024/03/28 09:34:17;;;;;;;2.30;1.50;;;10.20;99.90;;;;;;5027667;28;20048;-72
2024/03/28 09:36:43;;;;;;;1.40;1.30;;;10.10;99.90;;;;;;5026333;28;20022;-72
2024/03/28 09:39:13;;;;;;;1.90;1.65;;;10.10;99.90;;;;;;5026742;28;20091;-73
2024/03/28 09:41:44;;;;;;;1.85;1.42;;;10.10;99.90;;;;;;5027051;28;20029;-72
2024/03/28 09:44:18;;;;;;;1.90;1.80;;;10.10;99.90;;;;;;5026889;28;20052;-72
2024/03/28 09:46:48;;;;;;;1.65;1.55;;;10.10;99.90;;;;;;5026878;28;20017;-71
2024/03/28 09:49:16;;;;;;;4.15;2.30;;;10.00;99.90;;;;;;5024847;28;20406;-73
2024/03/28 09:51:42;;;;;;;6.90;4.20;;;9.90;99.90;;;;;;5026505;28;20040;-73
2024/03/28 09:54:08;;;;;;;4.10;2.00;;;10.00;99.90;;;;;;5027123;28;20512;-71
2024/03/28 09:56:35;;;;;;;7.65;4.05;;;10.00;99.90;;;;;;5025540;28;20026;-74
2024/03/28 09:59:04;;;;;;;2.15;1.95;;;10.10;99.90;;;;;;5027207;28;20036;-72
2024/03/28 10:01:33;;;;;;;3.58;2.47;;;10.20;99.90;;;;;;5026622;28;20390;-72
2024/03/28 10:04:19;;;;;;;3.00;2.10;;;10.30;99.90;;;;;;5025993;28;20861;-72
2024/03/28 10:06:55;;;;;;;6.38;3.33;;;10.40;99.90;;;;;;5025752;28;20116;-73
2024/03/28 10:09:24;;;;;;;4.35;2.83;;;10.60;99.90;;;;;;5025336;28;20056;-72
2024/03/28 10:11:51;;;;;;;4.15;2.88;;;10.70;99.90;;;;;;5026646;28;20091;-73
2024/03/28 10:14:32;;;;;;;4.22;2.88;;;11.10;99.90;;;;;;5027701;28;20018;-71
2024/03/28 10:17:04;;;;;;;5.07;2.50;;;11.30;99.90;;;;;;5028653;28;20029;-71
2024/03/28 10:19:31;;;;;;;4.03;2.45;;;11.30;99.90;;;;;;5028763;28;20029;-71
2024/03/28 10:22:07;;;;;;;2.75;2.03;;;11.20;99.90;;;;;;5024154;28;20033;-70
2024/03/28 10:24:33;;;;;;;6.28;2.50;;;11.20;99.90;;;;;;5033572;28;20113;-71
2024/03/28 10:27:00;;;;;;;2.88;2.30;;;11.40;99.90;;;;;;5026975;28;20109;-74
2024/03/28 10:29:31;;;;;;;2.60;1.80;;;11.50;99.90;;;;;;5032217;28;20041;-74
2024/03/28 10:32:06;;;;;;;2.90;1.50;;;11.80;99.90;;;;;;5030435;28;20053;-74
2024/03/28 10:34:32;;;;;;;4.35;2.22;;;12.10;99.90;;;;;;5031485;28;20048;-74
2024/03/28 10:37:04;;;;;;;2.75;1.40;;;12.20;99.90;;;;;;5031077;28;20446;-74
2024/03/28 10:39:30;;;;;;;3.78;1.15;;;12.40;99.90;;;;;;5020901;28;20026;-73
2024/03/28 10:42:01;;;;;;;4.05;1.20;;;12.60;99.90;;;;;;5026411;28;20067;-74
2024/03/28 10:44:30;;;;;;;2.00;1.45;;;12.80;99.90;;;;;;5026762;28;20036;-70
2024/03/28 10:46:57;;;;;;;4.38;1.77;;;12.80;99.90;;;;;;5032180;28;20025;-74
2024/03/28 10:49:30;;;;;;;3.85;1.70;;;12.80;99.90;;;;;;5032961;28;20053;-73
2024/03/28 10:52:00;;;;;;;4.38;1.55;;;12.90;99.90;;;;;;5032314;28;20052;-72
2024/03/28 10:54:30;;;;;;;5.80;1.90;;;13.10;99.90;;;;;;5032276;28;20026;-74
2024/03/28 10:56:57;;;;;;;1.90;0.90;;;13.10;99.90;;;;;;5030994;28;20052;-73
2024/03/28 10:59:25;;;;;;;5.55;1.23;;;13.10;99.90;;;;;;5032802;28;20021;-74
2024/03/28 11:01:53;;;;;;;3.55;1.10;;;13.20;99.90;;;;;;5029666;28;20091;-74
2024/03/28 11:04:20;;;;;;;4.32;0.82;;;13.00;99.90;;;;;;5030241;28;20029;-74
2024/03/28 11:06:47;;;;;;;2.30;1.20;;;12.90;99.90;;;;;;5023782;28;20128;-76
2024/03/28 11:09:13;;;;;;;1.92;1.05;;;13.00;99.90;;;;;;5030854;28;20021;-74
2024/03/28 11:11:40;;;;;;;4.15;1.10;;;12.90;99.90;;;;;;5025790;28;20623;-72
2024/03/28 11:14:07;;;;;;;3.70;1.02;;;12.80;99.90;;;;;;5029857;28;20584;-76
2024/03/28 11:16:35;;;;;;;1.60;1.00;;;12.60;99.90;;;;;;5030747;28;20025;-74
2024/03/28 11:19:02;;;;;;;3.45;1.17;;;12.60;99.90;;;;;;5028652;28;20026;-77
2024/03/28 11:21:29;;;;;;;3.03;0.90;;;12.50;99.90;;;;;;5032533;28;20563;-74
2024/03/28 11:23:54;;;;;;;3.42;1.00;;;12.50;99.90;;;;;;5030655;28;20017;-76
2024/03/28 11:26:21;;;;;;;2.92;0.60;;;12.60;99.90;;;;;;5032192;28;20356;-76
2024/03/28 11:28:48;;;;;;;2.05;1.00;;;12.70;99.90;;;;;;5030355;28;20020;-76
2024/03/28 11:31:24;;;;;;;2.25;0.70;;;12.80;99.90;;;;;;5032017;28;20041;-76
2024/03/28 11:34:01;;;;;;;2.42;0.63;;;12.70;99.90;;;;;;5031042;28;20028;-76
2024/03/28 11:36:29;;;;;;;1.23;0.63;;;12.50;99.90;;;;;;5032038;28;20025;-75
2024/03/28 11:38:55;;;;;;;1.73;0.65;;;12.40;99.90;;;;;;5031892;28;20409;-75
2024/03/28 11:41:22;;;;;;;3.38;1.60;;;12.40;99.90;;;;;;5029705;28;20744;-76
2024/03/28 11:43:49;;;;;;;2.28;0.80;;;12.70;99.90;;;;;;5025185;28;20029;-73
2024/03/28 11:46:15;;;;;;;4.30;0.63;;;13.00;99.90;;;;;;5031396;28;20036;-75
2024/03/28 11:48:40;;;;;;;2.33;0.80;;;13.20;99.90;;;;;;5034765;28;20029;-75
2024/03/28 11:51:07;;;;;;;2.88;0.70;;;13.40;99.90;;;;;;5029997;28;20497;-74
2024/03/28 11:53:43;;;;;;;2.47;0.60;;;13.30;99.90;;;;;;5029369;28;20013;-72
2024/03/28 11:56:13;;;;;;;3.60;1.02;;;13.10;99.90;;;;;;5027691;28;20040;-73
2024/03/28 11:58:39;;;;;;;6.68;0.93;;;12.90;99.90;;;;;;5031603;28;20017;-73
2024/03/28 12:01:06;;;;;;;4.93;0.95;;;12.70;99.90;;;;;;5031237;28;20120;-73
2024/03/28 12:03:32;;;;;;;1.50;0.50;;;12.70;99.90;;;;;;5031849;28;20352;-73
2024/03/28 12:05:59;;;;;;;1.45;0.55;;;12.70;99.90;;;;;;5031479;28;20064;-74
2024/03/28 12:08:29;;;;;;;3.25;0.82;;;12.90;99.90;;;;;;5031608;28;20071;-75
2024/03/28 12:11:03;;;;;;;1.83;0.55;;;13.10;99.90;;;;;;5031576;28;20051;-74
2024/03/28 12:13:29;;;;;;;1.02;0.38;;;13.40;99.90;;;;;;5031316;28;20025;-77
2024/03/28 12:15:59;;;;;;;0.60;0.25;;;13.50;99.90;;;;;;5031775;28;20033;-77
2024/03/28 12:18:26;;;;;;;3.17;0.93;;;13.40;99.90;;;;;;5029762;28;20025;-78
2024/03/28 12:21:02;;;;;;;3.78;0.60;;;13.40;99.90;;;;;;5030446;28;20037;-78
2024/03/28 12:23:28;;;;;;;1.70;0.35;;;13.60;99.90;;;;;;5031328;28;20493;-79
2024/03/28 12:25:54;;;;;;;1.65;0.63;;;13.70;99.90;;;;;;5029382;28;20037;-78
2024/03/28 12:28:22;;;;;;;2.00;0.60;;;13.60;99.90;;;;;;5031115;28;20037;-78
2024/03/28 12:30:55;;;;;;;0.77;0.30;;;13.50;99.90;;;;;;5029301;28;20041;-77
2024/03/28 12:33:25;;;;;;;1.13;0.80;;;13.70;99.90;;;;;;5016740;28;20488;-78
2024/03/28 12:35:55;;;;;;;1.92;0.52;;;13.70;99.90;;;;;;5029694;28;20013;-78
2024/03/28 12:38:22;;;;;;;3.17;0.98;;;13.70;99.90;;;;;;5030172;28;20057;-79
2024/03/28 12:40:50;;;;;;;0.73;0.30;;;13.60;99.90;;;;;;5029270;28;20044;-79
2024/03/28 12:43:21;;;;;;;1.25;0.30;;;13.40;99.90;;;;;;5020106;28;20093;-79
2024/03/28 12:45:49;;;;;;;2.30;0.25;;;13.40;99.90;;;;;;5027455;28;20505;-79
2024/03/28 12:48:17;;;;;;;2.83;0.52;;;13.70;99.90;;;;;;5038626;28;20029;-79
2024/03/28 12:50:45;;;;;;;0.50;0.40;;;13.70;99.90;;;;;;5030067;28;20039;-79
2024/03/28 12:53:11;;;;;;;3.72;1.00;;;13.60;99.90;;;;;;5031607;28;20018;-79
2024/03/28 12:55:37;;;;;;;2.08;1.40;;;13.60;99.90;;;;;;5017282;28;20026;-80
2024/03/28 12:58:03;;;;;;;1.60;0.60;;;13.80;99.90;;;;;;5031161;28;20029;-79